sensor_id;sensor_type;location;lat;lon;timestamp;P1;durP1;ratioP1;P2;durP2;ratioP2
48207;SDS011;33997;53.278;9.708;2024-03-07T00:02:12;18.35;;;7.80;;
48207;SDS011;33997;53.278;9.708;2024-03-07T00:04:38;21.42;;;10.43;;
48207;SDS011;33997;53.278;9.708;2024-03-07T00:07:04;25.17;;;9.63;;
48207;SDS011;33997;53.278;9.708;2024-03-07T00:09:31;22.33;;;9.05;;
48207;SDS011;33997;53.278;9.708;2024-03-07T00:11:56;23.75;;;9.60;;
48207;SDS011;33997;53.278;9.708;2024-03-07T00:14:22;23.02;;;10.32;;
48207;SDS011;33997;53.278;9.708;2024-03-07T00:16:51;19.98;;;8.95;;
48207;SDS011;33997;53.278;9.708;2024-03-07T00:19:26;17.40;;;8.40;;
48207;SDS011;33997;53.278;9.708;2024-03-07T00:21:55;19.67;;;9.13;;
48207;SDS011;33997;53.278;9.708;2024-03-07T00:24:21;20.70;;;9.38;;
48207;SDS011;33997;53.278;9.708;2024-03-07T00:26:47;23.08;;;9.55;;
48207;SDS011;33997;53.278;9.708;2024-03-07T00:29:16;20.40;;;9.95;;
48207;SDS011;33997;53.278;9.708;2024-03-07T00:31:43;23.38;;;10.10;;
48207;SDS011;33997;53.278;9.708;2024-03-07T00:34:09;21.75;;;10.02;;
48207;SDS011;33997;53.278;9.708;2024-03-07T00:36:35;20.17;;;9.02;;
48207;SDS011;33997;53.278;9.708;2024-03-07T00:39:00;20.00;;;9.27;;
48207;SDS011;33997;53.278;9.708;2024-03-07T00:41:26;23.27;;;9.07;;
48207;SDS011;33997;53.278;9.708;2024-03-07T00:43:51;19.88;;;9.45;;
48207;SDS011;33997;53.278;9.708;2024-03-07T00:46:17;20.40;;;8.88;;
48207;SDS011;33997;53.278;9.708;2024-03-07T00:48:42;20.92;;;9.05;;
48207;SDS011;33997;53.278;9.708;2024-03-07T00:51:08;20.77;;;9.10;;
48207;SDS011;33997;53.278;9.708;2024-03-07T00:53:33;20.13;;;9.43;;
48207;SDS011;33997;53.278;9.708;2024-03-07T00:55:59;22.90;;;9.32;;
48207;SDS011;33997;53.278;9.708;2024-03-07T00:58:24;19.63;;;8.60;;
48207;SDS011;33997;53.278;9.708;2024-03-07T01:00:50;16.35;;;9.27;;
48207;SDS011;33997;53.278;9.708;2024-03-07T01:03:15;19.10;;;8.75;;
48207;SDS011;33997;53.278;9.708;2024-03-07T01:05:42;22.08;;;10.20;;
48207;SDS011;33997;53.278;9.708;2024-03-07T01:08:08;17.90;;;7.53;;
48207;SDS011;33997;53.278;9.708;2024-03-07T01:10:33;20.05;;;9.80;;
48207;SDS011;33997;53.278;9.708;2024-03-07T01:12:59;17.00;;;8.25;;
48207;SDS011;33997;53.278;9.708;2024-03-07T01:15:27;20.15;;;8.98;;
48207;SDS011;33997;53.278;9.708;2024-03-07T01:17:53;18.35;;;8.30;;
48207;SDS011;33997;53.278;9.708;2024-03-07T01:20:19;19.23;;;8.43;;
48207;SDS011;33997;53.278;9.708;2024-03-07T01:22:44;19.98;;;8.20;;
48207;SDS011;33997;53.278;9.708;2024-03-07T01:25:10;14.68;;;7.72;;
48207;SDS011;33997;53.278;9.708;2024-03-07T01:27:37;17.13;;;8.40;;
48207;SDS011;33997;53.278;9.708;2024-03-07T01:30:02;18.27;;;8.88;;
48207;SDS011;33997;53.278;9.708;2024-03-07T01:32:28;23.58;;;9.32;;
48207;SDS011;33997;53.278;9.708;2024-03-07T01:34:54;17.23;;;8.30;;
48207;SDS011;33997;53.278;9.708;2024-03-07T01:37:19;19.25;;;9.25;;
48207;SDS011;33997;53.278;9.708;2024-03-07T01:39:45;15.52;;;8.57;;
48207;SDS011;33997;53.278;9.708;2024-03-07T01:42:11;19.63;;;9.13;;
48207;SDS011;33997;53.278;9.708;2024-03-07T01:44:37;17.50;;;8.48;;
48207;SDS011;33997;53.278;9.708;2024-03-07T01:47:05;21.85;;;8.07;;
48207;SDS011;33997;53.278;9.708;2024-03-07T01:49:31;17.15;;;8.30;;
48207;SDS011;33997;53.278;9.708;2024-03-07T01:51:57;18.08;;;7.95;;
48207;SDS011;33997;53.278;9.708;2024-03-07T01:54:23;15.93;;;7.07;;
48207;SDS011;33997;53.278;9.708;2024-03-07T01:56:50;18.95;;;8.32;;
48207;SDS011;33997;53.278;9.708;2024-03-07T01:59:16;16.83;;;7.55;;
48207;SDS011;33997;53.278;9.708;2024-03-07T02:01:42;17.90;;;7.70;;
48207;SDS011;33997;53.278;9.708;2024-03-07T02:04:08;16.48;;;8.10;;
48207;SDS011;33997;53.278;9.708;2024-03-07T02:06:33;17.40;;;8.35;;
48207;SDS011;33997;53.278;9.708;2024-03-07T02:08:59;16.40;;;7.25;;
48207;SDS011;33997;53.278;9.708;2024-03-07T02:11:26;14.35;;;6.97;;
48207;SDS011;33997;53.278;9.708;2024-03-07T02:13:52;16.25;;;7.30;;
48207;SDS011;33997;53.278;9.708;2024-03-07T02:16:17;13.80;;;6.70;;
48207;SDS011;33997;53.278;9.708;2024-03-07T02:18:43;15.88;;;7.05;;
48207;SDS011;33997;53.278;9.708;2024-03-07T02:21:09;16.95;;;7.30;;
48207;SDS011;33997;53.278;9.708;2024-03-07T02:23:36;17.52;;;7.97;;
48207;SDS011;33997;53.278;9.708;2024-03-07T02:26:02;13.40;;;7.03;;
48207;SDS011;33997;53.278;9.708;2024-03-07T02:28:29;14.82;;;6.78;;
48207;SDS011;33997;53.278;9.708;2024-03-07T02:30:54;17.88;;;6.90;;
48207;SDS011;33997;53.278;9.708;2024-03-07T02:33:20;14.45;;;6.40;;
48207;SDS011;33997;53.278;9.708;2024-03-07T02:35:46;14.23;;;7.20;;
48207;SDS011;33997;53.278;9.708;2024-03-07T02:38:12;18.83;;;7.32;;
48207;SDS011;33997;53.278;9.708;2024-03-07T02:40:37;10.30;;;5.75;;
48207;SDS011;33997;53.278;9.708;2024-03-07T02:43:03;15.55;;;7.20;;
48207;SDS011;33997;53.278;9.708;2024-03-07T02:45:30;15.20;;;6.28;;
48207;SDS011;33997;53.278;9.708;2024-03-07T02:47:55;17.20;;;7.07;;
48207;SDS011;33997;53.278;9.708;2024-03-07T02:50:21;16.50;;;6.22;;
48207;SDS011;33997;53.278;9.708;2024-03-07T02:52:47;13.35;;;6.90;;
48207;SDS011;33997;53.278;9.708;2024-03-07T02:55:14;12.05;;;6.00;;
48207;SDS011;33997;53.278;9.708;2024-03-07T02:57:40;16.25;;;6.70;;
48207;SDS011;33997;53.278;9.708;2024-03-07T03:00:06;12.65;;;5.70;;
48207;SDS011;33997;53.278;9.708;2024-03-07T03:02:44;15.88;;;6.75;;
48207;SDS011;33997;53.278;9.708;2024-03-07T03:05:10;13.13;;;6.70;;
48207;SDS011;33997;53.278;9.708;2024-03-07T03:07:36;14.30;;;7.43;;
48207;SDS011;33997;53.278;9.708;2024-03-07T03:10:02;14.93;;;6.65;;
48207;SDS011;33997;53.278;9.708;2024-03-07T03:12:32;13.73;;;6.63;;
48207;SDS011;33997;53.278;9.708;2024-03-07T03:14:57;16.52;;;6.80;;
48207;SDS011;33997;53.278;9.708;2024-03-07T03:17:23;15.90;;;7.60;;
48207;SDS011;33997;53.278;9.708;2024-03-07T03:19:48;19.45;;;8.18;;
48207;SDS011;33997;53.278;9.708;2024-03-07T03:22:16;18.45;;;7.68;;
48207;SDS011;33997;53.278;9.708;2024-03-07T03:24:43;20.17;;;8.30;;
48207;SDS011;33997;53.278;9.708;2024-03-07T03:27:08;18.60;;;7.78;;
48207;SDS011;33997;53.278;9.708;2024-03-07T03:29:34;19.20;;;8.15;;
48207;SDS011;33997;53.278;9.708;2024-03-07T03:31:59;18.95;;;8.60;;
48207;SDS011;33997;53.278;9.708;2024-03-07T03:34:25;21.30;;;9.15;;
48207;SDS011;33997;53.278;9.708;2024-03-07T03:36:51;21.88;;;9.57;;
48207;SDS011;33997;53.278;9.708;2024-03-07T03:39:17;19.67;;;7.93;;
48207;SDS011;33997;53.278;9.708;2024-03-07T03:41:45;22.70;;;9.85;;
48207;SDS011;33997;53.278;9.708;2024-03-07T03:44:11;17.65;;;9.00;;
48207;SDS011;33997;53.278;9.708;2024-03-07T03:46:37;20.45;;;9.20;;
48207;SDS011;33997;53.278;9.708;2024-03-07T03:49:02;23.67;;;10.18;;
48207;SDS011;33997;53.278;9.708;2024-03-07T03:51:27;24.25;;;9.50;;
48207;SDS011;33997;53.278;9.708;2024-03-07T03:53:53;21.48;;;9.73;;
48207;SDS011;33997;53.278;9.708;2024-03-07T03:56:19;18.73;;;9.48;;
48207;SDS011;33997;53.278;9.708;2024-03-07T03:58:44;25.05;;;9.77;;
48207;SDS011;33997;53.278;9.708;2024-03-07T04:01:10;18.42;;;8.63;;
48207;SDS011;33997;53.278;9.708;2024-03-07T04:03:38;19.08;;;8.77;;
48207;SDS011;33997;53.278;9.708;2024-03-07T04:06:04;17.65;;;7.80;;
48207;SDS011;33997;53.278;9.708;2024-03-07T04:08:29;21.38;;;8.85;;
48207;SDS011;33997;53.278;9.708;2024-03-07T04:10:55;16.88;;;7.38;;
48207;SDS011;33997;53.278;9.708;2024-03-07T04:13:20;16.60;;;7.57;;
48207;SDS011;33997;53.278;9.708;2024-03-07T04:15:50;24.30;;;9.77;;
48207;SDS011;33997;53.278;9.708;2024-03-07T04:18:16;19.95;;;8.90;;
48207;SDS011;33997;53.278;9.708;2024-03-07T04:20:41;20.65;;;9.05;;
48207;SDS011;33997;53.278;9.708;2024-03-07T04:23:09;17.33;;;7.93;;
48207;SDS011;33997;53.278;9.708;2024-03-07T04:25:34;19.80;;;8.68;;
48207;SDS011;33997;53.278;9.708;2024-03-07T04:28:00;17.15;;;7.63;;
48207;SDS011;33997;53.278;9.708;2024-03-07T04:30:25;17.58;;;8.10;;
48207;SDS011;33997;53.278;9.708;2024-03-07T04:32:51;15.68;;;7.82;;
48207;SDS011;33997;53.278;9.708;2024-03-07T04:35:17;13.02;;;7.00;;
48207;SDS011;33997;53.278;9.708;2024-03-07T04:37:42;21.08;;;8.65;;
48207;SDS011;33997;53.278;9.708;2024-03-07T04:40:08;16.60;;;7.47;;
48207;SDS011;33997;53.278;9.708;2024-03-07T04:42:43;14.10;;;6.18;;
48207;SDS011;33997;53.278;9.708;2024-03-07T04:45:14;17.23;;;7.55;;
48207;SDS011;33997;53.278;9.708;2024-03-07T04:47:43;13.48;;;6.35;;
48207;SDS011;33997;53.278;9.708;2024-03-07T04:50:09;16.83;;;6.90;;
48207;SDS011;33997;53.278;9.708;2024-03-07T04:52:38;17.90;;;6.78;;
48207;SDS011;33997;53.278;9.708;2024-03-07T04:55:07;13.75;;;7.25;;
48207;SDS011;33997;53.278;9.708;2024-03-07T04:57:35;13.47;;;6.57;;
48207;SDS011;33997;53.278;9.708;2024-03-07T05:00:03;15.52;;;7.30;;
48207;SDS011;33997;53.278;9.708;2024-03-07T05:02:30;16.00;;;7.00;;
48207;SDS011;33997;53.278;9.708;2024-03-07T05:04:55;16.83;;;7.03;;
48207;SDS011;33997;53.278;9.708;2024-03-07T05:07:21;11.20;;;6.43;;
48207;SDS011;33997;53.278;9.708;2024-03-07T05:09:46;18.08;;;7.10;;
48207;SDS011;33997;53.278;9.708;2024-03-07T05:12:13;13.00;;;5.97;;
48207;SDS011;33997;53.278;9.708;2024-03-07T05:14:39;13.13;;;5.85;;
48207;SDS011;33997;53.278;9.708;2024-03-07T05:17:04;15.48;;;7.30;;
48207;SDS011;33997;53.278;9.708;2024-03-07T05:19:30;16.13;;;7.80;;
48207;SDS011;33997;53.278;9.708;2024-03-07T05:21:59;11.25;;;5.75;;
48207;SDS011;33997;53.278;9.708;2024-03-07T05:24:25;12.88;;;6.30;;
48207;SDS011;33997;53.278;9.708;2024-03-07T05:26:50;14.20;;;6.20;;
48207;SDS011;33997;53.278;9.708;2024-03-07T05:29:17;14.88;;;7.38;;
48207;SDS011;33997;53.278;9.708;2024-03-07T05:31:43;10.60;;;6.07;;
48207;SDS011;33997;53.278;9.708;2024-03-07T05:34:12;14.65;;;6.50;;
48207;SDS011;33997;53.278;9.708;2024-03-07T05:36:38;13.45;;;6.03;;
48207;SDS011;33997;53.278;9.708;2024-03-07T05:39:09;12.02;;;5.47;;
48207;SDS011;33997;53.278;9.708;2024-03-07T05:41:36;12.48;;;5.95;;
48207;SDS011;33997;53.278;9.708;2024-03-07T05:44:02;13.52;;;5.47;;
48207;SDS011;33997;53.278;9.708;2024-03-07T05:46:27;13.35;;;6.05;;
48207;SDS011;33997;53.278;9.708;2024-03-07T05:48:53;12.35;;;5.53;;
48207;SDS011;33997;53.278;9.708;2024-03-07T05:51:24;10.80;;;5.78;;
48207;SDS011;33997;53.278;9.708;2024-03-07T05:53:49;12.98;;;5.82;;
48207;SDS011;33997;53.278;9.708;2024-03-07T05:56:15;13.98;;;6.15;;
48207;SDS011;33997;53.278;9.708;2024-03-07T05:58:41;13.25;;;5.75;;
48207;SDS011;33997;53.278;9.708;2024-03-07T06:01:06;13.10;;;6.40;;
48207;SDS011;33997;53.278;9.708;2024-03-07T06:03:33;13.73;;;5.90;;
48207;SDS011;33997;53.278;9.708;2024-03-07T06:06:01;12.75;;;5.63;;
48207;SDS011;33997;53.278;9.708;2024-03-07T06:08:27;11.13;;;5.07;;
48207;SDS011;33997;53.278;9.708;2024-03-07T06:10:52;13.80;;;6.10;;
48207;SDS011;33997;53.278;9.708;2024-03-07T06:13:18;13.95;;;6.15;;
48207;SDS011;33997;53.278;9.708;2024-03-07T06:15:43;13.82;;;5.82;;
48207;SDS011;33997;53.278;9.708;2024-03-07T06:18:10;12.27;;;6.82;;
48207;SDS011;33997;53.278;9.708;2024-03-07T06:20:39;13.15;;;6.18;;
48207;SDS011;33997;53.278;9.708;2024-03-07T06:23:09;11.23;;;5.50;;
48207;SDS011;33997;53.278;9.708;2024-03-07T06:25:36;11.35;;;5.78;;
48207;SDS011;33997;53.278;9.708;2024-03-07T06:28:12;12.85;;;5.90;;
48207;SDS011;33997;53.278;9.708;2024-03-07T06:30:38;11.73;;;5.47;;
48207;SDS011;33997;53.278;9.708;2024-03-07T06:33:05;12.32;;;5.47;;
48207;SDS011;33997;53.278;9.708;2024-03-07T06:35:31;14.15;;;6.68;;
48207;SDS011;33997;53.278;9.708;2024-03-07T06:37:59;12.73;;;6.50;;
48207;SDS011;33997;53.278;9.708;2024-03-07T06:40:25;11.50;;;5.63;;
48207;SDS011;33997;53.278;9.708;2024-03-07T06:42:50;15.85;;;7.40;;
48207;SDS011;33997;53.278;9.708;2024-03-07T06:45:17;13.20;;;5.88;;
48207;SDS011;33997;53.278;9.708;2024-03-07T06:47:43;12.68;;;6.35;;
48207;SDS011;33997;53.278;9.708;2024-03-07T06:50:09;12.75;;;6.00;;
48207;SDS011;33997;53.278;9.708;2024-03-07T06:52:35;13.00;;;5.90;;
48207;SDS011;33997;53.278;9.708;2024-03-07T06:55:01;14.63;;;5.95;;
48207;SDS011;33997;53.278;9.708;2024-03-07T06:57:32;9.25;;;5.20;;
48207;SDS011;33997;53.278;9.708;2024-03-07T06:59:59;13.35;;;5.53;;
48207;SDS011;33997;53.278;9.708;2024-03-07T07:02:24;12.18;;;6.05;;
48207;SDS011;33997;53.278;9.708;2024-03-07T07:04:52;9.30;;;5.03;;
48207;SDS011;33997;53.278;9.708;2024-03-07T07:07:18;15.73;;;5.85;;
48207;SDS011;33997;53.278;9.708;2024-03-07T07:09:45;12.95;;;5.50;;
48207;SDS011;33997;53.278;9.708;2024-03-07T07:12:10;11.40;;;4.75;;
48207;SDS011;33997;53.278;9.708;2024-03-07T07:14:36;11.77;;;4.88;;
48207;SDS011;33997;53.278;9.708;2024-03-07T07:17:01;9.48;;;5.07;;
48207;SDS011;33997;53.278;9.708;2024-03-07T07:19:27;12.50;;;5.35;;
48207;SDS011;33997;53.278;9.708;2024-03-07T07:21:53;10.43;;;5.38;;
48207;SDS011;33997;53.278;9.708;2024-03-07T07:24:22;9.63;;;4.55;;
48207;SDS011;33997;53.278;9.708;2024-03-07T07:26:48;10.23;;;4.95;;
48207;SDS011;33997;53.278;9.708;2024-03-07T07:29:15;10.77;;;4.70;;
48207;SDS011;33997;53.278;9.708;2024-03-07T07:31:41;7.68;;;4.05;;
48207;SDS011;33997;53.278;9.708;2024-03-07T07:34:06;8.95;;;4.38;;
48207;SDS011;33997;53.278;9.708;2024-03-07T07:36:31;7.25;;;3.90;;
48207;SDS011;33997;53.278;9.708;2024-03-07T07:38:57;9.82;;;4.38;;
48207;SDS011;33997;53.278;9.708;2024-03-07T07:41:23;7.65;;;4.45;;
48207;SDS011;33997;53.278;9.708;2024-03-07T07:43:48;10.20;;;4.45;;
48207;SDS011;33997;53.278;9.708;2024-03-07T07:46:16;10.10;;;4.38;;
48207;SDS011;33997;53.278;9.708;2024-03-07T07:48:42;9.38;;;4.53;;
48207;SDS011;33997;53.278;9.708;2024-03-07T07:51:07;9.38;;;4.47;;
48207;SDS011;33997;53.278;9.708;2024-03-07T07:53:33;9.35;;;4.20;;
48207;SDS011;33997;53.278;9.708;2024-03-07T07:55:59;8.45;;;3.97;;
48207;SDS011;33997;53.278;9.708;2024-03-07T07:58:25;8.07;;;3.63;;
48207;SDS011;33997;53.278;9.708;2024-03-07T08:00:50;8.50;;;3.90;;
48207;SDS011;33997;53.278;9.708;2024-03-07T08:03:16;12.65;;;4.70;;
48207;SDS011;33997;53.278;9.708;2024-03-07T08:05:43;7.55;;;4.03;;
48207;SDS011;33997;53.278;9.708;2024-03-07T08:08:09;6.13;;;3.55;;
48207;SDS011;33997;53.278;9.708;2024-03-07T08:10:41;8.60;;;3.60;;
48207;SDS011;33997;53.278;9.708;2024-03-07T08:13:07;8.75;;;4.00;;
48207;SDS011;33997;53.278;9.708;2024-03-07T08:15:35;8.50;;;4.03;;
48207;SDS011;33997;53.278;9.708;2024-03-07T08:18:01;8.05;;;4.45;;
48207;SDS011;33997;53.278;9.708;2024-03-07T08:20:27;6.70;;;3.75;;
48207;SDS011;33997;53.278;9.708;2024-03-07T08:22:53;8.93;;;3.42;;
48207;SDS011;33997;53.278;9.708;2024-03-07T08:25:20;8.90;;;4.22;;
48207;SDS011;33997;53.278;9.708;2024-03-07T08:27:50;11.88;;;4.32;;
48207;SDS011;33997;53.278;9.708;2024-03-07T08:30:17;7.95;;;4.03;;
48207;SDS011;33997;53.278;9.708;2024-03-07T08:32:46;6.72;;;3.25;;
48207;SDS011;33997;53.278;9.708;2024-03-07T08:37:42;7.00;;;3.45;;
48207;SDS011;33997;53.278;9.708;2024-03-07T08:40:09;6.63;;;3.28;;
48207;SDS011;33997;53.278;9.708;2024-03-07T08:42:39;7.85;;;3.63;;
48207;SDS011;33997;53.278;9.708;2024-03-07T08:45:07;10.68;;;3.72;;
48207;SDS011;33997;53.278;9.708;2024-03-07T08:47:35;7.85;;;3.70;;
48207;SDS011;33997;53.278;9.708;2024-03-07T08:50:02;7.53;;;3.60;;
48207;SDS011;33997;53.278;9.708;2024-03-07T08:52:33;5.95;;;3.38;;
48207;SDS011;33997;53.278;9.708;2024-03-07T08:55:01;8.15;;;3.70;;
48207;SDS011;33997;53.278;9.708;2024-03-07T08:57:27;8.18;;;3.35;;
48207;SDS011;33997;53.278;9.708;2024-03-07T08:59:53;6.00;;;3.17;;
48207;SDS011;33997;53.278;9.708;2024-03-07T09:02:18;8.75;;;3.42;;
48207;SDS011;33997;53.278;9.708;2024-03-07T09:04:44;6.03;;;3.58;;
48207;SDS011;33997;53.278;9.708;2024-03-07T09:07:09;6.72;;;3.85;;
48207;SDS011;33997;53.278;9.708;2024-03-07T09:09:35;5.80;;;2.83;;
48207;SDS011;33997;53.278;9.708;2024-03-07T09:12:01;5.97;;;3.83;;
48207;SDS011;33997;53.278;9.708;2024-03-07T09:14:29;7.32;;;3.00;;
48207;SDS011;33997;53.278;9.708;2024-03-07T09:16:55;6.43;;;3.15;;
48207;SDS011;33997;53.278;9.708;2024-03-07T09:19:21;5.88;;;2.90;;
48207;SDS011;33997;53.278;9.708;2024-03-07T09:21:50;5.28;;;3.08;;
48207;SDS011;33997;53.278;9.708;2024-03-07T09:24:17;6.03;;;2.95;;
48207;SDS011;33997;53.278;9.708;2024-03-07T09:26:46;7.63;;;3.65;;
48207;SDS011;33997;53.278;9.708;2024-03-07T09:29:12;6.78;;;3.47;;
48207;SDS011;33997;53.278;9.708;2024-03-07T09:31:37;9.43;;;4.10;;
48207;SDS011;33997;53.278;9.708;2024-03-07T09:34:05;9.45;;;4.22;;
48207;SDS011;33997;53.278;9.708;2024-03-07T09:36:30;6.47;;;3.45;;
48207;SDS011;33997;53.278;9.708;2024-03-07T09:38:56;6.10;;;3.00;;
48207;SDS011;33997;53.278;9.708;2024-03-07T09:41:22;8.40;;;3.53;;
48207;SDS011;33997;53.278;9.708;2024-03-07T09:43:51;6.18;;;3.47;;
48207;SDS011;33997;53.278;9.708;2024-03-07T09:46:19;8.00;;;3.58;;
48207;SDS011;33997;53.278;9.708;2024-03-07T09:48:46;6.75;;;3.05;;
48207;SDS011;33997;53.278;9.708;2024-03-07T09:51:13;7.70;;;3.20;;
48207;SDS011;33997;53.278;9.708;2024-03-07T09:53:42;7.57;;;3.78;;
48207;SDS011;33997;53.278;9.708;2024-03-07T09:56:09;7.20;;;3.53;;
48207;SDS011;33997;53.278;9.708;2024-03-07T09:58:38;6.72;;;3.30;;
48207;SDS011;33997;53.278;9.708;2024-03-07T10:01:06;6.68;;;3.47;;
48207;SDS011;33997;53.278;9.708;2024-03-07T10:03:34;6.43;;;3.30;;
48207;SDS011;33997;53.278;9.708;2024-03-07T10:06:00;5.47;;;2.85;;
48207;SDS011;33997;53.278;9.708;2024-03-07T10:08:26;7.15;;;3.50;;
48207;SDS011;33997;53.278;9.708;2024-03-07T10:10:54;7.00;;;3.05;;
48207;SDS011;33997;53.278;9.708;2024-03-07T10:13:20;9.27;;;3.67;;
48207;SDS011;33997;53.278;9.708;2024-03-07T10:15:47;5.50;;;3.08;;
48207;SDS011;33997;53.278;9.708;2024-03-07T10:18:13;6.78;;;3.53;;
48207;SDS011;33997;53.278;9.708;2024-03-07T10:20:41;6.65;;;3.00;;
48207;SDS011;33997;53.278;9.708;2024-03-07T10:23:08;7.50;;;3.47;;
48207;SDS011;33997;53.278;9.708;2024-03-07T10:25:34;9.10;;;3.67;;
48207;SDS011;33997;53.278;9.708;2024-03-07T10:28:00;7.78;;;3.63;;
48207;SDS011;33997;53.278;9.708;2024-03-07T10:30:29;5.85;;;2.97;;
48207;SDS011;33997;53.278;9.708;2024-03-07T10:32:58;6.97;;;3.15;;
48207;SDS011;33997;53.278;9.708;2024-03-07T10:35:24;9.73;;;4.38;;
48207;SDS011;33997;53.278;9.708;2024-03-07T10:37:51;7.20;;;3.65;;
48207;SDS011;33997;53.278;9.708;2024-03-07T10:40:25;4.88;;;2.70;;
48207;SDS011;33997;53.278;9.708;2024-03-07T10:42:52;6.40;;;3.45;;
48207;SDS011;33997;53.278;9.708;2024-03-07T10:45:21;5.90;;;3.03;;
48207;SDS011;33997;53.278;9.708;2024-03-07T10:47:53;7.70;;;3.13;;
48207;SDS011;33997;53.278;9.708;2024-03-07T10:50:30;6.20;;;3.15;;
48207;SDS011;33997;53.278;9.708;2024-03-07T10:53:02;7.03;;;3.53;;
48207;SDS011;33997;53.278;9.708;2024-03-07T10:58:57;5.47;;;2.58;;
48207;SDS011;33997;53.278;9.708;2024-03-07T11:01:29;8.00;;;3.08;;
48207;SDS011;33997;53.278;9.708;2024-03-07T11:03:58;5.22;;;2.58;;
48207;SDS011;33997;53.278;9.708;2024-03-07T11:06:24;8.13;;;3.67;;
48207;SDS011;33997;53.278;9.708;2024-03-07T11:08:50;6.40;;;2.78;;
48207;SDS011;33997;53.278;9.708;2024-03-07T11:11:17;7.10;;;3.15;;
48207;SDS011;33997;53.278;9.708;2024-03-07T11:13:43;6.40;;;3.20;;
48207;SDS011;33997;53.278;9.708;2024-03-07T11:16:09;6.63;;;3.28;;
48207;SDS011;33997;53.278;9.708;2024-03-07T11:18:35;6.28;;;2.97;;
48207;SDS011;33997;53.278;9.708;2024-03-07T11:21:00;8.13;;;3.70;;
48207;SDS011;33997;53.278;9.708;2024-03-07T11:23:31;6.72;;;3.45;;
48207;SDS011;33997;53.278;9.708;2024-03-07T11:26:09;7.63;;;3.63;;
48207;SDS011;33997;53.278;9.708;2024-03-07T11:28:36;7.38;;;3.50;;
48207;SDS011;33997;53.278;9.708;2024-03-07T11:31:12;7.07;;;3.78;;
48207;SDS011;33997;53.278;9.708;2024-03-07T11:33:39;5.45;;;3.10;;
48207;SDS011;33997;53.278;9.708;2024-03-07T11:36:41;5.53;;;3.28;;
48207;SDS011;33997;53.278;9.708;2024-03-07T11:39:32;7.18;;;3.40;;
48207;SDS011;33997;53.278;9.708;2024-03-07T11:44:51;7.38;;;3.08;;
48207;SDS011;33997;53.278;9.708;2024-03-07T11:47:17;6.43;;;3.38;;
48207;SDS011;33997;53.278;9.708;2024-03-07T11:49:43;8.32;;;3.78;;
48207;SDS011;33997;53.278;9.708;2024-03-07T11:52:16;8.43;;;4.32;;
48207;SDS011;33997;53.278;9.708;2024-03-07T11:54:42;7.15;;;3.38;;
48207;SDS011;33997;53.278;9.708;2024-03-07T11:57:17;8.23;;;4.13;;
48207;SDS011;33997;53.278;9.708;2024-03-07T11:59:57;8.13;;;3.75;;
48207;SDS011;33997;53.278;9.708;2024-03-07T12:02:25;6.78;;;3.92;;
48207;SDS011;33997;53.278;9.708;2024-03-07T12:04:52;8.25;;;3.65;;
48207;SDS011;33997;53.278;9.708;2024-03-07T12:07:18;7.90;;;3.55;;
48207;SDS011;33997;53.278;9.708;2024-03-07T12:09:47;7.57;;;3.47;;
48207;SDS011;33997;53.278;9.708;2024-03-07T12:12:16;6.50;;;3.33;;
48207;SDS011;33997;53.278;9.708;2024-03-07T12:14:43;6.65;;;3.05;;
48207;SDS011;33997;53.278;9.708;2024-03-07T12:17:08;7.55;;;3.60;;
48207;SDS011;33997;53.278;9.708;2024-03-07T12:19:34;8.82;;;4.43;;
48207;SDS011;33997;53.278;9.708;2024-03-07T12:22:01;8.70;;;4.32;;
48207;SDS011;33997;53.278;9.708;2024-03-07T12:24:27;8.73;;;3.83;;
48207;SDS011;33997;53.278;9.708;2024-03-07T12:27:04;8.57;;;4.20;;
48207;SDS011;33997;53.278;9.708;2024-03-07T12:29:31;7.32;;;3.60;;
48207;SDS011;33997;53.278;9.708;2024-03-07T12:31:56;7.70;;;3.72;;
48207;SDS011;33997;53.278;9.708;2024-03-07T12:34:22;9.30;;;4.35;;
48207;SDS011;33997;53.278;9.708;2024-03-07T12:36:51;7.90;;;3.85;;
48207;SDS011;33997;53.278;9.708;2024-03-07T12:39:24;7.70;;;3.90;;
48207;SDS011;33997;53.278;9.708;2024-03-07T12:41:50;10.25;;;4.45;;
48207;SDS011;33997;53.278;9.708;2024-03-07T12:44:18;9.48;;;4.68;;
48207;SDS011;33997;53.278;9.708;2024-03-07T12:46:46;8.65;;;3.72;;
48207;SDS011;33997;53.278;9.708;2024-03-07T12:49:12;9.75;;;4.88;;
48207;SDS011;33997;53.278;9.708;2024-03-07T12:51:40;10.55;;;5.13;;
48207;SDS011;33997;53.278;9.708;2024-03-07T12:54:09;7.55;;;3.92;;
48207;SDS011;33997;53.278;9.708;2024-03-07T12:56:35;7.97;;;3.80;;
48207;SDS011;33997;53.278;9.708;2024-03-07T12:59:04;12.10;;;4.30;;
48207;SDS011;33997;53.278;9.708;2024-03-07T13:01:30;6.45;;;3.92;;
48207;SDS011;33997;53.278;9.708;2024-03-07T13:03:58;7.72;;;4.57;;
48207;SDS011;33997;53.278;9.708;2024-03-07T13:06:24;9.90;;;4.53;;
48207;SDS011;33997;53.278;9.708;2024-03-07T13:08:54;9.07;;;3.83;;
48207;SDS011;33997;53.278;9.708;2024-03-07T13:11:21;9.38;;;4.85;;
48207;SDS011;33997;53.278;9.708;2024-03-07T13:13:48;8.70;;;4.03;;
48207;SDS011;33997;53.278;9.708;2024-03-07T13:16:13;8.63;;;4.22;;
48207;SDS011;33997;53.278;9.708;2024-03-07T13:18:39;6.88;;;3.58;;
48207;SDS011;33997;53.278;9.708;2024-03-07T13:21:05;11.07;;;4.45;;
48207;SDS011;33997;53.278;9.708;2024-03-07T13:23:35;9.23;;;4.47;;
48207;SDS011;33997;53.278;9.708;2024-03-07T13:26:04;10.63;;;4.43;;
48207;SDS011;33997;53.278;9.708;2024-03-07T13:28:33;8.85;;;4.07;;
48207;SDS011;33997;53.278;9.708;2024-03-07T13:30:59;10.50;;;4.28;;
48207;SDS011;33997;53.278;9.708;2024-03-07T13:33:24;8.20;;;4.57;;
48207;SDS011;33997;53.278;9.708;2024-03-07T13:35:52;8.68;;;4.65;;
48207;SDS011;33997;53.278;9.708;2024-03-07T13:38:18;10.93;;;3.78;;
48207;SDS011;33997;53.278;9.708;2024-03-07T13:40:43;9.32;;;4.47;;
48207;SDS011;33997;53.278;9.708;2024-03-07T13:43:09;9.10;;;4.47;;
48207;SDS011;33997;53.278;9.708;2024-03-07T13:45:35;12.13;;;5.40;;
48207;SDS011;33997;53.278;9.708;2024-03-07T13:48:04;9.00;;;4.65;;
48207;SDS011;33997;53.278;9.708;2024-03-07T13:50:31;8.75;;;4.13;;
48207;SDS011;33997;53.278;9.708;2024-03-07T13:52:58;12.73;;;5.13;;
48207;SDS011;33997;53.278;9.708;2024-03-07T13:55:41;8.77;;;3.85;;
48207;SDS011;33997;53.278;9.708;2024-03-07T13:58:40;8.13;;;4.53;;
48207;SDS011;33997;53.278;9.708;2024-03-07T14:01:08;8.77;;;4.18;;
48207;SDS011;33997;53.278;9.708;2024-03-07T14:07:03;8.57;;;4.43;;
48207;SDS011;33997;53.278;9.708;2024-03-07T14:10:04;8.90;;;4.45;;
48207;SDS011;33997;53.278;9.708;2024-03-07T14:22:02;9.98;;;4.68;;
48207;SDS011;33997;53.278;9.708;2024-03-07T14:27:26;9.02;;;4.57;;
48207;SDS011;33997;53.278;9.708;2024-03-07T14:33:05;9.98;;;4.68;;
48207;SDS011;33997;53.278;9.708;2024-03-07T14:35:35;7.63;;;4.07;;
48207;SDS011;33997;53.278;9.708;2024-03-07T14:38:27;9.80;;;4.45;;
48207;SDS011;33997;53.278;9.708;2024-03-07T14:40:56;12.32;;;4.93;;
48207;SDS011;33997;53.278;9.708;2024-03-07T14:43:22;8.38;;;4.80;;
48207;SDS011;33997;53.278;9.708;2024-03-07T14:45:49;8.95;;;4.32;;
48207;SDS011;33997;53.278;9.708;2024-03-07T14:48:16;8.40;;;4.13;;
48207;SDS011;33997;53.278;9.708;2024-03-07T14:50:43;10.82;;;5.32;;
48207;SDS011;33997;53.278;9.708;2024-03-07T14:53:11;9.32;;;4.45;;
48207;SDS011;33997;53.278;9.708;2024-03-07T14:55:38;8.20;;;4.43;;
48207;SDS011;33997;53.278;9.708;2024-03-07T14:58:05;10.00;;;4.75;;
48207;SDS011;33997;53.278;9.708;2024-03-07T15:00:34;13.93;;;5.18;;
48207;SDS011;33997;53.278;9.708;2024-03-07T15:03:06;6.53;;;3.53;;
48207;SDS011;33997;53.278;9.708;2024-03-07T15:05:34;9.40;;;4.40;;
48207;SDS011;33997;53.278;9.708;2024-03-07T15:08:00;6.88;;;4.03;;
48207;SDS011;33997;53.278;9.708;2024-03-07T15:10:26;9.02;;;4.28;;